sensor_id;sensor_type;location;lat;lon;timestamp;P1;durP1;ratioP1;P2;durP2;ratioP2
49678;SDS011;35570;48.218;16.326;2023-01-30T00:02:08;12.77;;;10.68;;
49678;SDS011;35570;48.218;16.326;2023-01-30T00:04:34;11.88;;;10.13;;
49678;SDS011;35570;48.218;16.326;2023-01-30T00:06:59;14.27;;;10.95;;
49678;SDS011;35570;48.218;16.326;2023-01-30T00:09:25;14.27;;;11.60;;
49678;SDS011;35570;48.218;16.326;2023-01-30T00:11:50;12.90;;;10.05;;
49678;SDS011;35570;48.218;16.326;2023-01-30T00:14:16;13.75;;;11.52;;
49678;SDS011;35570;48.218;16.326;2023-01-30T00:16:42;12.45;;;10.43;;
49678;SDS011;35570;48.218;16.326;2023-01-30T00:19:08;14.45;;;10.88;;
49678;SDS011;35570;48.218;16.326;2023-01-30T00:21:33;14.48;;;11.73;;
49678;SDS011;35570;48.218;16.326;2023-01-30T00:23:59;14.93;;;11.82;;
49678;SDS011;35570;48.218;16.326;2023-01-30T00:26:25;16.95;;;12.93;;
49678;SDS011;35570;48.218;16.326;2023-01-30T00:28:50;16.30;;;12.68;;
49678;SDS011;35570;48.218;16.326;2023-01-30T00:31:16;13.73;;;11.40;;
49678;SDS011;35570;48.218;16.326;2023-01-30T00:33:42;15.45;;;11.85;;
49678;SDS011;35570;48.218;16.326;2023-01-30T00:36:08;16.90;;;12.50;;
49678;SDS011;35570;48.218;16.326;2023-01-30T00:38:34;13.45;;;11.10;;
49678;SDS011;35570;48.218;16.326;2023-01-30T00:41:00;12.88;;;11.23;;
49678;SDS011;35570;48.218;16.326;2023-01-30T00:43:26;16.23;;;11.85;;
49678;SDS011;35570;48.218;16.326;2023-01-30T00:46:29;14.40;;;11.45;;
49678;SDS011;35570;48.218;16.326;2023-01-30T00:49:15;17.20;;;11.60;;
49678;SDS011;35570;48.218;16.326;2023-01-30T00:51:41;14.18;;;11.52;;
49678;SDS011;35570;48.218;16.326;2023-01-30T00:54:07;16.35;;;12.63;;
49678;SDS011;35570;48.218;16.326;2023-01-30T00:56:33;16.35;;;11.60;;
49678;SDS011;35570;48.218;16.326;2023-01-30T00:58:58;16.65;;;12.38;;
49678;SDS011;35570;48.218;16.326;2023-01-30T01:01:24;15.18;;;11.63;;
49678;SDS011;35570;48.218;16.326;2023-01-30T01:03:50;14.13;;;11.90;;
49678;SDS011;35570;48.218;16.326;2023-01-30T01:06:16;15.93;;;12.95;;
49678;SDS011;35570;48.218;16.326;2023-01-30T01:08:41;15.73;;;12.90;;
49678;SDS011;35570;48.218;16.326;2023-01-30T01:11:07;14.45;;;11.52;;
49678;SDS011;35570;48.218;16.326;2023-01-30T01:13:33;17.63;;;12.95;;
49678;SDS011;35570;48.218;16.326;2023-01-30T01:15:58;14.52;;;11.65;;
49678;SDS011;35570;48.218;16.326;2023-01-30T01:18:24;17.48;;;12.70;;
49678;SDS011;35570;48.218;16.326;2023-01-30T01:20:50;15.80;;;12.07;;
49678;SDS011;35570;48.218;16.326;2023-01-30T01:23:16;15.30;;;12.30;;
49678;SDS011;35570;48.218;16.326;2023-01-30T01:25:41;17.05;;;12.85;;
49678;SDS011;35570;48.218;16.326;2023-01-30T01:28:07;18.95;;;13.95;;
49678;SDS011;35570;48.218;16.326;2023-01-30T01:30:33;16.30;;;12.60;;
49678;SDS011;35570;48.218;16.326;2023-01-30T01:32:59;14.77;;;11.82;;
49678;SDS011;35570;48.218;16.326;2023-01-30T01:35:24;17.30;;;12.82;;
49678;SDS011;35570;48.218;16.326;2023-01-30T01:37:53;15.88;;;12.27;;
49678;SDS011;35570;48.218;16.326;2023-01-30T01:40:19;17.08;;;13.00;;
49678;SDS011;35570;48.218;16.326;2023-01-30T01:43:13;15.88;;;11.52;;
49678;SDS011;35570;48.218;16.326;2023-01-30T01:45:43;18.00;;;13.25;;
49678;SDS011;35570;48.218;16.326;2023-01-30T01:48:13;16.23;;;12.25;;
49678;SDS011;35570;48.218;16.326;2023-01-30T01:50:48;14.63;;;12.32;;
49678;SDS011;35570;48.218;16.326;2023-01-30T01:53:19;17.17;;;12.50;;
49678;SDS011;35570;48.218;16.326;2023-01-30T01:55:48;17.88;;;13.63;;
49678;SDS011;35570;48.218;16.326;2023-01-30T01:58:40;18.00;;;13.05;;
49678;SDS011;35570;48.218;16.326;2023-01-30T02:01:07;15.60;;;12.80;;
49678;SDS011;35570;48.218;16.326;2023-01-30T02:03:34;15.20;;;12.05;;
49678;SDS011;35570;48.218;16.326;2023-01-30T02:06:06;16.05;;;11.98;;
49678;SDS011;35570;48.218;16.326;2023-01-30T02:08:38;16.23;;;12.27;;
49678;SDS011;35570;48.218;16.326;2023-01-30T02:13:59;16.77;;;12.65;;
49678;SDS011;35570;48.218;16.326;2023-01-30T02:16:26;15.70;;;12.75;;
49678;SDS011;35570;48.218;16.326;2023-01-30T02:18:52;15.75;;;11.75;;
49678;SDS011;35570;48.218;16.326;2023-01-30T02:32:02;16.98;;;12.55;;
49678;SDS011;35570;48.218;16.326;2023-01-30T02:34:55;16.50;;;11.88;;
49678;SDS011;35570;48.218;16.326;2023-01-30T02:40:04;15.57;;;12.45;;
49678;SDS011;35570;48.218;16.326;2023-01-30T02:42:43;18.05;;;12.85;;
49678;SDS011;35570;48.218;16.326;2023-01-30T02:45:37;14.40;;;11.15;;
49678;SDS011;35570;48.218;16.326;2023-01-30T02:48:09;14.88;;;11.25;;
49678;SDS011;35570;48.218;16.326;2023-01-30T02:50:41;15.43;;;11.93;;
49678;SDS011;35570;48.218;16.326;2023-01-30T02:53:10;14.70;;;11.80;;
49678;SDS011;35570;48.218;16.326;2023-01-30T02:55:38;15.60;;;12.80;;
49678;SDS011;35570;48.218;16.326;2023-01-30T02:58:05;13.23;;;10.27;;
49678;SDS011;35570;48.218;16.326;2023-01-30T03:03:22;14.35;;;11.30;;
49678;SDS011;35570;48.218;16.326;2023-01-30T03:06:09;15.45;;;11.75;;
49678;SDS011;35570;48.218;16.326;2023-01-30T03:09:07;14.35;;;11.38;;
49678;SDS011;35570;48.218;16.326;2023-01-30T03:11:47;14.02;;;10.75;;
49678;SDS011;35570;48.218;16.326;2023-01-30T03:14:47;13.43;;;11.30;;
49678;SDS011;35570;48.218;16.326;2023-01-30T03:17:21;13.82;;;10.63;;
49678;SDS011;35570;48.218;16.326;2023-01-30T03:19:51;15.82;;;11.68;;
49678;SDS011;35570;48.218;16.326;2023-01-30T03:22:19;16.35;;;11.38;;
49678;SDS011;35570;48.218;16.326;2023-01-30T03:24:45;14.98;;;10.95;;
49678;SDS011;35570;48.218;16.326;2023-01-30T03:27:11;13.73;;;11.30;;
49678;SDS011;35570;48.218;16.326;2023-01-30T03:29:37;13.30;;;10.57;;
49678;SDS011;35570;48.218;16.326;2023-01-30T03:32:03;12.40;;;10.38;;
49678;SDS011;35570;48.218;16.326;2023-01-30T03:34:29;12.20;;;9.98;;
49678;SDS011;35570;48.218;16.326;2023-01-30T03:36:55;13.05;;;10.45;;
49678;SDS011;35570;48.218;16.326;2023-01-30T03:39:22;11.90;;;9.85;;
49678;SDS011;35570;48.218;16.326;2023-01-30T03:41:48;13.75;;;10.73;;
49678;SDS011;35570;48.218;16.326;2023-01-30T03:44:14;15.05;;;10.95;;
49678;SDS011;35570;48.218;16.326;2023-01-30T03:46:40;13.55;;;10.30;;
49678;SDS011;35570;48.218;16.326;2023-01-30T03:49:06;13.05;;;9.85;;
49678;SDS011;35570;48.218;16.326;2023-01-30T03:51:31;15.63;;;10.82;;
49678;SDS011;35570;48.218;16.326;2023-01-30T03:53:57;15.30;;;11.23;;
49678;SDS011;35570;48.218;16.326;2023-01-30T03:56:23;15.93;;;11.43;;
49678;SDS011;35570;48.218;16.326;2023-01-30T03:58:48;14.68;;;11.05;;
49678;SDS011;35570;48.218;16.326;2023-01-30T04:01:14;16.30;;;10.98;;
49678;SDS011;35570;48.218;16.326;2023-01-30T04:03:39;14.50;;;10.82;;
49678;SDS011;35570;48.218;16.326;2023-01-30T04:06:05;15.23;;;11.10;;
49678;SDS011;35570;48.218;16.326;2023-01-30T04:08:31;14.60;;;11.25;;
49678;SDS011;35570;48.218;16.326;2023-01-30T04:10:57;15.15;;;11.55;;
49678;SDS011;35570;48.218;16.326;2023-01-30T04:13:22;15.45;;;11.50;;
49678;SDS011;35570;48.218;16.326;2023-01-30T04:15:48;14.75;;;11.13;;
49678;SDS011;35570;48.218;16.326;2023-01-30T04:18:14;15.20;;;11.82;;
49678;SDS011;35570;48.218;16.326;2023-01-30T04:20:40;14.27;;;11.82;;
49678;SDS011;35570;48.218;16.326;2023-01-30T04:23:05;14.10;;;11.00;;
49678;SDS011;35570;48.218;16.326;2023-01-30T04:25:31;15.43;;;12.10;;
49678;SDS011;35570;48.218;16.326;2023-01-30T04:27:57;17.00;;;11.57;;
49678;SDS011;35570;48.218;16.326;2023-01-30T04:30:22;16.92;;;11.75;;
49678;SDS011;35570;48.218;16.326;2023-01-30T04:32:48;13.95;;;10.98;;
49678;SDS011;35570;48.218;16.326;2023-01-30T04:35:14;15.60;;;12.48;;
49678;SDS011;35570;48.218;16.326;2023-01-30T04:37:39;14.38;;;11.65;;
49678;SDS011;35570;48.218;16.326;2023-01-30T04:40:05;15.60;;;12.85;;
49678;SDS011;35570;48.218;16.326;2023-01-30T04:42:31;14.75;;;11.40;;
49678;SDS011;35570;48.218;16.326;2023-01-30T04:44:57;16.75;;;11.82;;
49678;SDS011;35570;48.218;16.326;2023-01-30T04:47:23;16.50;;;12.20;;
49678;SDS011;35570;48.218;16.326;2023-01-30T04:49:48;14.68;;;12.02;;
49678;SDS011;35570;48.218;16.326;2023-01-30T04:52:14;14.48;;;10.88;;
49678;SDS011;35570;48.218;16.326;2023-01-30T04:54:39;15.10;;;12.10;;
49678;SDS011;35570;48.218;16.326;2023-01-30T04:57:05;16.00;;;12.32;;
49678;SDS011;35570;48.218;16.326;2023-01-30T04:59:31;14.85;;;11.13;;
49678;SDS011;35570;48.218;16.326;2023-01-30T05:01:56;15.30;;;12.65;;
49678;SDS011;35570;48.218;16.326;2023-01-30T05:04:22;15.73;;;12.48;;
49678;SDS011;35570;48.218;16.326;2023-01-30T05:06:48;15.27;;;12.48;;
49678;SDS011;35570;48.218;16.326;2023-01-30T05:09:13;18.23;;;12.65;;
49678;SDS011;35570;48.218;16.326;2023-01-30T05:11:39;15.27;;;12.05;;
49678;SDS011;35570;48.218;16.326;2023-01-30T05:14:05;16.52;;;13.52;;
49678;SDS011;35570;48.218;16.326;2023-01-30T05:16:30;15.70;;;12.48;;
49678;SDS011;35570;48.218;16.326;2023-01-30T05:18:56;16.15;;;12.27;;
49678;SDS011;35570;48.218;16.326;2023-01-30T05:21:23;17.25;;;12.73;;
49678;SDS011;35570;48.218;16.326;2023-01-30T05:23:52;18.08;;;13.27;;
49678;SDS011;35570;48.218;16.326;2023-01-30T05:26:18;15.98;;;12.45;;
49678;SDS011;35570;48.218;16.326;2023-01-30T05:28:49;16.02;;;12.55;;
49678;SDS011;35570;48.218;16.326;2023-01-30T05:31:19;15.00;;;12.80;;
49678;SDS011;35570;48.218;16.326;2023-01-30T05:33:45;15.02;;;11.57;;
49678;SDS011;35570;48.218;16.326;2023-01-30T05:36:14;17.02;;;12.93;;
49678;SDS011;35570;48.218;16.326;2023-01-30T05:38:41;17.70;;;13.05;;
49678;SDS011;35570;48.218;16.326;2023-01-30T05:41:09;17.50;;;14.38;;
49678;SDS011;35570;48.218;16.326;2023-01-30T05:43:35;16.50;;;12.45;;
49678;SDS011;35570;48.218;16.326;2023-01-30T05:46:02;19.80;;;13.88;;
49678;SDS011;35570;48.218;16.326;2023-01-30T05:48:29;16.48;;;11.70;;
49678;SDS011;35570;48.218;16.326;2023-01-30T05:50:56;16.55;;;12.10;;
49678;SDS011;35570;48.218;16.326;2023-01-30T05:53:24;19.60;;;12.98;;
49678;SDS011;35570;48.218;16.326;2023-01-30T05:55:59;17.40;;;12.60;;
49678;SDS011;35570;48.218;16.326;2023-01-30T05:58:29;18.40;;;13.02;;
49678;SDS011;35570;48.218;16.326;2023-01-30T06:01:01;21.80;;;14.50;;
49678;SDS011;35570;48.218;16.326;2023-01-30T06:03:28;19.13;;;13.50;;
49678;SDS011;35570;48.218;16.326;2023-01-30T06:05:55;19.88;;;14.10;;
49678;SDS011;35570;48.218;16.326;2023-01-30T06:08:20;19.50;;;12.93;;
49678;SDS011;35570;48.218;16.326;2023-01-30T06:10:46;20.45;;;14.60;;
49678;SDS011;35570;48.218;16.326;2023-01-30T06:13:12;22.23;;;14.25;;
49678;SDS011;35570;48.218;16.326;2023-01-30T06:15:37;21.05;;;14.15;;
49678;SDS011;35570;48.218;16.326;2023-01-30T06:18:03;18.55;;;13.68;;
49678;SDS011;35570;48.218;16.326;2023-01-30T06:20:29;21.00;;;13.70;;
49678;SDS011;35570;48.218;16.326;2023-01-30T06:22:55;21.40;;;14.32;;
49678;SDS011;35570;48.218;16.326;2023-01-30T06:25:20;21.05;;;14.27;;
49678;SDS011;35570;48.218;16.326;2023-01-30T06:27:46;19.05;;;13.68;;
49678;SDS011;35570;48.218;16.326;2023-01-30T06:30:12;19.27;;;14.15;;
49678;SDS011;35570;48.218;16.326;2023-01-30T06:32:37;20.55;;;14.48;;
49678;SDS011;35570;48.218;16.326;2023-01-30T06:35:03;18.88;;;14.48;;
49678;SDS011;35570;48.218;16.326;2023-01-30T06:37:29;19.77;;;14.20;;
49678;SDS011;35570;48.218;16.326;2023-01-30T06:39:55;20.13;;;15.15;;
49678;SDS011;35570;48.218;16.326;2023-01-30T06:42:20;18.98;;;13.65;;
49678;SDS011;35570;48.218;16.326;2023-01-30T06:44:46;20.42;;;14.88;;
49678;SDS011;35570;48.218;16.326;2023-01-30T06:47:11;20.02;;;13.52;;
49678;SDS011;35570;48.218;16.326;2023-01-30T06:49:37;19.92;;;14.05;;
49678;SDS011;35570;48.218;16.326;2023-01-30T06:52:03;19.60;;;14.43;;
49678;SDS011;35570;48.218;16.326;2023-01-30T06:54:28;20.58;;;13.50;;
49678;SDS011;35570;48.218;16.326;2023-01-30T06:56:54;19.00;;;13.07;;
49678;SDS011;35570;48.218;16.326;2023-01-30T06:59:20;17.98;;;13.30;;
49678;SDS011;35570;48.218;16.326;2023-01-30T07:01:45;21.90;;;14.73;;
49678;SDS011;35570;48.218;16.326;2023-01-30T07:04:11;20.95;;;15.10;;
49678;SDS011;35570;48.218;16.326;2023-01-30T07:06:37;17.95;;;14.00;;
49678;SDS011;35570;48.218;16.326;2023-01-30T07:09:02;19.25;;;13.98;;
49678;SDS011;35570;48.218;16.326;2023-01-30T07:11:28;18.92;;;13.30;;
49678;SDS011;35570;48.218;16.326;2023-01-30T07:13:55;18.20;;;13.27;;
49678;SDS011;35570;48.218;16.326;2023-01-30T07:16:21;17.85;;;12.35;;
49678;SDS011;35570;48.218;16.326;2023-01-30T07:18:53;18.58;;;14.07;;
49678;SDS011;35570;48.218;16.326;2023-01-30T07:21:23;18.08;;;12.90;;
49678;SDS011;35570;48.218;16.326;2023-01-30T07:23:49;17.90;;;13.15;;
49678;SDS011;35570;48.218;16.326;2023-01-30T07:26:15;16.92;;;13.13;;
49678;SDS011;35570;48.218;16.326;2023-01-30T07:28:41;18.85;;;14.15;;
49678;SDS011;35570;48.218;16.326;2023-01-30T07:31:06;18.70;;;13.43;;
49678;SDS011;35570;48.218;16.326;2023-01-30T07:33:32;18.73;;;12.65;;
49678;SDS011;35570;48.218;16.326;2023-01-30T07:35:57;16.83;;;12.95;;
49678;SDS011;35570;48.218;16.326;2023-01-30T07:38:23;18.17;;;13.35;;
49678;SDS011;35570;48.218;16.326;2023-01-30T07:40:49;17.13;;;13.32;;
49678;SDS011;35570;48.218;16.326;2023-01-30T07:43:14;17.88;;;13.13;;
49678;SDS011;35570;48.218;16.326;2023-01-30T07:45:41;18.85;;;13.77;;
49678;SDS011;35570;48.218;16.326;2023-01-30T07:48:13;19.10;;;13.27;;
49678;SDS011;35570;48.218;16.326;2023-01-30T07:50:40;18.13;;;13.52;;
49678;SDS011;35570;48.218;16.326;2023-01-30T07:53:06;17.83;;;13.77;;
49678;SDS011;35570;48.218;16.326;2023-01-30T07:55:35;18.38;;;13.45;;
49678;SDS011;35570;48.218;16.326;2023-01-30T07:58:00;18.50;;;13.18;;
49678;SDS011;35570;48.218;16.326;2023-01-30T08:00:26;19.30;;;12.93;;
49678;SDS011;35570;48.218;16.326;2023-01-30T08:02:52;17.50;;;12.75;;
49678;SDS011;35570;48.218;16.326;2023-01-30T08:05:18;18.98;;;13.70;;
49678;SDS011;35570;48.218;16.326;2023-01-30T08:07:44;16.20;;;12.70;;
49678;SDS011;35570;48.218;16.326;2023-01-30T08:10:11;17.88;;;12.52;;
49678;SDS011;35570;48.218;16.326;2023-01-30T08:12:38;15.88;;;12.57;;
49678;SDS011;35570;48.218;16.326;2023-01-30T08:15:04;17.70;;;13.05;;
49678;SDS011;35570;48.218;16.326;2023-01-30T08:17:30;18.98;;;12.30;;
49678;SDS011;35570;48.218;16.326;2023-01-30T08:19:56;19.15;;;13.00;;
49678;SDS011;35570;48.218;16.326;2023-01-30T08:22:22;16.00;;;12.10;;
49678;SDS011;35570;48.218;16.326;2023-01-30T08:24:47;18.38;;;12.85;;
49678;SDS011;35570;48.218;16.326;2023-01-30T08:27:13;15.43;;;11.23;;
49678;SDS011;35570;48.218;16.326;2023-01-30T08:29:39;18.05;;;12.85;;
49678;SDS011;35570;48.218;16.326;2023-01-30T08:32:04;18.33;;;12.20;;
49678;SDS011;35570;48.218;16.326;2023-01-30T08:34:30;16.00;;;11.30;;
49678;SDS011;35570;48.218;16.326;2023-01-30T08:36:56;14.50;;;11.25;;
49678;SDS011;35570;48.218;16.326;2023-01-30T08:39:21;15.48;;;11.52;;
49678;SDS011;35570;48.218;16.326;2023-01-30T08:41:47;12.52;;;10.27;;
49678;SDS011;35570;48.218;16.326;2023-01-30T08:44:13;13.13;;;10.50;;
49678;SDS011;35570;48.218;16.326;2023-01-30T08:46:38;12.85;;;9.18;;
49678;SDS011;35570;48.218;16.326;2023-01-30T08:49:04;13.27;;;9.68;;
49678;SDS011;35570;48.218;16.326;2023-01-30T08:51:30;10.45;;;9.20;;
49678;SDS011;35570;48.218;16.326;2023-01-30T08:53:57;22.88;;;10.43;;
49678;SDS011;35570;48.218;16.326;2023-01-30T08:56:23;10.98;;;9.18;;
49678;SDS011;35570;48.218;16.326;2023-01-30T08:58:48;9.38;;;8.20;;
49678;SDS011;35570;48.218;16.326;2023-01-30T09:01:14;11.10;;;8.07;;
49678;SDS011;35570;48.218;16.326;2023-01-30T09:03:40;11.25;;;8.60;;
49678;SDS011;35570;48.218;16.326;2023-01-30T09:06:06;10.13;;;8.48;;
49678;SDS011;35570;48.218;16.326;2023-01-30T09:08:32;10.27;;;8.38;;
49678;SDS011;35570;48.218;16.326;2023-01-30T09:10:59;9.25;;;7.95;;
49678;SDS011;35570;48.218;16.326;2023-01-30T09:13:27;8.88;;;7.97;;
49678;SDS011;35570;48.218;16.326;2023-01-30T09:15:54;10.45;;;8.77;;
49678;SDS011;35570;48.218;16.326;2023-01-30T09:18:20;8.80;;;7.90;;
49678;SDS011;35570;48.218;16.326;2023-01-30T09:20:46;10.40;;;7.38;;
49678;SDS011;35570;48.218;16.326;2023-01-30T09:23:12;10.00;;;7.95;;
49678;SDS011;35570;48.218;16.326;2023-01-30T09:25:38;8.75;;;7.50;;
49678;SDS011;35570;48.218;16.326;2023-01-30T09:28:03;10.63;;;7.70;;
49678;SDS011;35570;48.218;16.326;2023-01-30T09:30:29;8.57;;;6.97;;
49678;SDS011;35570;48.218;16.326;2023-01-30T09:32:55;8.95;;;7.50;;
49678;SDS011;35570;48.218;16.326;2023-01-30T09:35:20;8.27;;;7.18;;
49678;SDS011;35570;48.218;16.326;2023-01-30T09:37:50;8.90;;;7.68;;
49678;SDS011;35570;48.218;16.326;2023-01-30T09:40:19;8.30;;;7.28;;
49678;SDS011;35570;48.218;16.326;2023-01-30T09:45:42;11.32;;;6.32;;
49678;SDS011;35570;48.218;16.326;2023-01-30T09:51:24;11.38;;;6.50;;
49678;SDS011;35570;48.218;16.326;2023-01-30T09:56:36;9.35;;;7.05;;
49678;SDS011;35570;48.218;16.326;2023-01-30T09:59:02;8.98;;;6.25;;
49678;SDS011;35570;48.218;16.326;2023-01-30T10:04:14;7.15;;;6.05;;
49678;SDS011;35570;48.218;16.326;2023-01-30T10:25:53;8.15;;;5.30;;
49678;SDS011;35570;48.218;16.326;2023-01-30T10:28:23;8.05;;;5.20;;
49678;SDS011;35570;48.218;16.326;2023-01-30T10:31:03;6.55;;;5.05;;
49678;SDS011;35570;48.218;16.326;2023-01-30T10:33:34;7.00;;;5.13;;
49678;SDS011;35570;48.218;16.326;2023-01-30T10:36:16;8.13;;;4.85;;
49678;SDS011;35570;48.218;16.326;2023-01-30T10:38:50;7.38;;;4.80;;
49678;SDS011;35570;48.218;16.326;2023-01-30T10:44:06;7.82;;;5.00;;
49678;SDS011;35570;48.218;16.326;2023-01-30T10:46:48;7.72;;;5.10;;
49678;SDS011;35570;48.218;16.326;2023-01-30T10:49:18;7.47;;;5.15;;
49678;SDS011;35570;48.218;16.326;2023-01-30T11:00:11;6.93;;;4.97;;
49678;SDS011;35570;48.218;16.326;2023-01-30T11:03:03;7.53;;;4.80;;
49678;SDS011;35570;48.218;16.326;2023-01-30T11:08:18;8.77;;;5.63;;
49678;SDS011;35570;48.218;16.326;2023-01-30T11:10:52;6.95;;;5.15;;
49678;SDS011;35570;48.218;16.326;2023-01-30T11:13:19;7.90;;;5.03;;
49678;SDS011;35570;48.218;16.326;2023-01-30T11:16:04;8.05;;;4.93;;
49678;SDS011;35570;48.218;16.326;2023-01-30T11:18:31;6.15;;;4.25;;
49678;SDS011;35570;48.218;16.326;2023-01-30T11:21:09;8.82;;;4.80;;
49678;SDS011;35570;48.218;16.326;2023-01-30T11:23:42;7.78;;;4.45;;
49678;SDS011;35570;48.218;16.326;2023-01-30T11:28:54;6.75;;;4.18;;
49678;SDS011;35570;48.218;16.326;2023-01-30T11:31:21;7.25;;;4.82;;
49678;SDS011;35570;48.218;16.326;2023-01-30T11:36:27;7.18;;;4.32;;
49678;SDS011;35570;48.218;16.326;2023-01-30T11:39:00;6.95;;;4.20;;
49678;SDS011;35570;48.218;16.326;2023-01-30T11:41:29;6.10;;;3.95;;
49678;SDS011;35570;48.218;16.326;2023-01-30T11:43:59;4.93;;;3.78;;
49678;SDS011;35570;48.218;16.326;2023-01-30T11:46:27;4.75;;;3.40;;
49678;SDS011;35570;48.218;16.326;2023-01-30T11:48:58;5.82;;;3.90;;
49678;SDS011;35570;48.218;16.326;2023-01-30T11:51:27;4.22;;;3.17;;
49678;SDS011;35570;48.218;16.326;2023-01-30T11:54:28;6.07;;;3.40;;
49678;SDS011;35570;48.218;16.326;2023-01-30T11:56:55;4.97;;;3.38;;
49678;SDS011;35570;48.218;16.326;2023-01-30T12:01:47;5.60;;;3.40;;
49678;SDS011;35570;48.218;16.326;2023-01-30T12:04:13;6.00;;;3.70;;
49678;SDS011;35570;48.218;16.326;2023-01-30T12:06:40;6.55;;;3.97;;
49678;SDS011;35570;48.218;16.326;2023-01-30T12:09:30;6.43;;;3.78;;
49678;SDS011;35570;48.218;16.326;2023-01-30T12:11:53;7.18;;;3.67;;
49678;SDS011;35570;48.218;16.326;2023-01-30T12:14:36;7.28;;;4.00;;
49678;SDS011;35570;48.218;16.326;2023-01-30T12:17:17;6.35;;;3.88;;
49678;SDS011;35570;48.218;16.326;2023-01-30T12:29:02;4.70;;;3.30;;
49678;SDS011;35570;48.218;16.326;2023-01-30T12:31:42;6.10;;;3.67;;
49678;SDS011;35570;48.218;16.326;2023-01-30T12:34:11;6.18;;;3.42;;
49678;SDS011;35570;48.218;16.326;2023-01-30T12:36:49;5.32;;;3.47;;
49678;SDS011;35570;48.218;16.326;2023-01-30T12:40:06;5.82;;;3.40;;
49678;SDS011;35570;48.218;16.326;2023-01-30T12:59:26;6.30;;;4.05;;
49678;SDS011;35570;48.218;16.326;2023-01-30T13:15:49;7.85;;;4.57;;
49678;SDS011;35570;48.218;16.326;2023-01-30T13:21:30;6.72;;;4.25;;
49678;SDS011;35570;48.218;16.326;2023-01-30T13:24:03;5.95;;;4.22;;
49678;SDS011;35570;48.218;16.326;2023-01-30T13:26:32;7.85;;;4.80;;
49678;SDS011;35570;48.218;16.326;2023-01-30T13:29:01;8.25;;;4.88;;
49678;SDS011;35570;48.218;16.326;2023-01-30T13:31:36;8.40;;;4.40;;
49678;SDS011;35570;48.218;16.326;2023-01-30T13:34:11;7.15;;;4.75;;
49678;SDS011;35570;48.218;16.326;2023-01-30T13:36:48;8.02;;;4.07;;
49678;SDS011;35570;48.218;16.326;2023-01-30T13:39:38;6.28;;;4.45;;
49678;SDS011;35570;48.218;16.326;2023-01-30T13:42:29;8.68;;;5.22;;
49678;SDS011;35570;48.218;16.326;2023-01-30T13:45:01;7.32;;;4.80;;
49678;SDS011;35570;48.218;16.326;2023-01-30T13:47:41;8.75;;;5.55;;
49678;SDS011;35570;48.218;16.326;2023-01-30T13:52:46;10.00;;;5.57;;
49678;SDS011;35570;48.218;16.326;2023-01-30T13:55:27;7.60;;;5.20;;
49678;SDS011;35570;48.218;16.326;2023-01-30T14:00:59;6.50;;;4.70;;
49678;SDS011;35570;48.218;16.326;2023-01-30T14:03:43;7.20;;;4.88;;
49678;SDS011;35570;48.218;16.326;2023-01-30T14:06:26;7.68;;;4.85;;
49678;SDS011;35570;48.218;16.326;2023-01-30T14:08:55;7.60;;;5.00;;
49678;SDS011;35570;48.218;16.326;2023-01-30T14:13:53;9.98;;;5.72;;
49678;SDS011;35570;48.218;16.326;2023-01-30T14:16:44;7.57;;;4.65;;
49678;SDS011;35570;48.218;16.326;2023-01-30T14:21:57;8.48;;;5.20;;
49678;SDS011;35570;48.218;16.326;2023-01-30T14:24:25;9.02;;;5.63;;
49678;SDS011;35570;48.218;16.326;2023-01-30T14:32:15;7.18;;;4.90;;
49678;SDS011;35570;48.218;16.326;2023-01-30T14:39:52;7.03;;;4.90;;
49678;SDS011;35570;48.218;16.326;2023-01-30T14:44:58;9.60;;;5.72;;
49678;SDS011;35570;48.218;16.326;2023-01-30T14:47:27;6.50;;;4.65;;
49678;SDS011;35570;48.218;16.326;2023-01-30T14:49:54;8.43;;;5.32;;
49678;SDS011;35570;48.218;16.326;2023-01-30T14:52:27;7.15;;;4.47;;
49678;SDS011;35570;48.218;16.326;2023-01-30T14:55:00;7.03;;;4.50;;
49678;SDS011;35570;48.218;16.326;2023-01-30T14:57:27;6.85;;;4.63;;
49678;SDS011;35570;48.218;16.326;2023-01-30T15:02:56;8.45;;;5.07;;
49678;SDS011;35570;48.218;16.326;2023-01-30T15:05:35;7.57;;;4.35;;
49678;SDS011;35570;48.218;16.326;2023-01-30T15:10:46;6.85;;;4.90;;
49678;SDS011;35570;48.218;16.326;2023-01-30T15:13:31;5.72;;;4.32;;
49678;SDS011;35570;48.218;16.326;2023-01-30T15:32:26;6.05;;;4.60;;
49678;SDS011;35570;48.218;16.326;2023-01-30T15:34:57;6.43;;;4.25;;
49678;SDS011;35570;48.218;16.326;2023-01-30T15:37:47;5.47;;;4.38;;
49678;SDS011;35570;48.218;16.326;2023-01-30T15:45:30;6.25;;;4.88;;
49678;SDS011;35570;48.218;16.326;2023-01-30T15:51:28;5.88;;;4.47;;
49678;SDS011;35570;48.218;16.326;2023-01-30T15:53:57;6.55;;;4.63;;
49678;SDS011;35570;48.218;16.326;2023-01-30T15:56:27;6.45;;;4.40;;
49678;SDS011;35570;48.218;16.326;2023-01-30T15:58:55;4.85;;;4.25;;
49678;SDS011;35570;48.218;16.326;2023-01-30T16:01:25;5.80;;;4.32;;
49678;SDS011;35570;48.218;16.326;2023-01-30T16:03:51;5.93;;;4.45;;
49678;SDS011;35570;48.218;16.326;2023-01-30T16:09:02;5.88;;;4.35;;
49678;SDS011;35570;48.218;16.326;2023-01-30T16:11:45;6.35;;;5.13;;
49678;SDS011;35570;48.218;16.326;2023-01-30T16:14:11;7.57;;;4.82;;
49678;SDS011;35570;48.218;16.326;2023-01-30T16:16:55;6.65;;;4.60;;
49678;SDS011;35570;48.218;16.326;2023-01-30T16:22:05;6.30;;;4.78;;
49678;SDS011;35570;48.218;16.326;2023-01-30T16:24:41;6.82;;;4.82;;
49678;SDS011;35570;48.218;16.326;2023-01-30T16:27:32;6.97;;;4.90;;
49678;SDS011;35570;48.218;16.326;2023-01-30T16:29:58;5.45;;;4.18;;
49678;SDS011;35570;48.218;16.326;2023-01-30T16:32:29;7.85;;;5.07;;
49678;SDS011;35570;48.218;16.326;2023-01-30T16:37:47;7.40;;;4.75;;
49678;SDS011;35570;48.218;16.326;2023-01-30T16:40:14;6.35;;;4.80;;
49678;SDS011;35570;48.218;16.326;2023-01-30T16:53:14;8.13;;;5.13;;
49678;SDS011;35570;48.218;16.326;2023-01-30T16:55:53;7.03;;;5.05;;
49678;SDS011;35570;48.218;16.326;2023-01-30T16:58:20;6.43;;;4.55;;
49678;SDS011;35570;48.218;16.326;2023-01-30T17:00:48;6.78;;;4.95;;
49678;SDS011;35570;48.218;16.326;2023-01-30T17:03:19;6.60;;;4.38;;
49678;SDS011;35570;48.218;16.326;2023-01-30T17:05:50;5.43;;;4.43;;
49678;SDS011;35570;48.218;16.326;2023-01-30T17:11:36;5.05;;;4.30;;
49678;SDS011;35570;48.218;16.326;2023-01-30T17:16:57;5.50;;;4.00;;
49678;SDS011;35570;48.218;16.326;2023-01-30T17:19:25;7.07;;;4.53;;
49678;SDS011;35570;48.218;16.326;2023-01-30T17:21:51;5.22;;;4.28;;
49678;SDS011;35570;48.218;16.326;2023-01-30T17:24:20;5.88;;;4.00;;
49678;SDS011;35570;48.218;16.326;2023-01-30T17:26:47;5.85;;;4.55;;
49678;SDS011;35570;48.218;16.326;2023-01-30T17:29:15;6.25;;;4.05;;
49678;SDS011;35570;48.218;16.326;2023-01-30T17:31:44;5.55;;;4.00;;
49678;SDS011;35570;48.218;16.326;2023-01-30T17:34:12;6.00;;;4.22;;
49678;SDS011;35570;48.218;16.326;2023-01-30T17:36:39;5.20;;;4.28;;
49678;SDS011;35570;48.218;16.326;2023-01-30T17:39:08;6.65;;;3.83;;
49678;SDS011;35570;48.218;16.326;2023-01-30T17:41:37;4.70;;;3.53;;
49678;SDS011;35570;48.218;16.326;2023-01-30T17:44:03;5.03;;;3.90;;
49678;SDS011;35570;48.218;16.326;2023-01-30T17:46:42;5.25;;;3.88;;